createdAt,value
2017-09-12T00:00:25.357Z,11.88
2017-09-12T00:02:53.645Z,11.89
2017-09-12T00:05:21.956Z,11.87
2017-09-12T00:07:51.037Z,11.86
2017-09-12T00:10:19.328Z,11.84
2017-09-12T00:12:47.625Z,11.83
2017-09-12T00:15:16.676Z,11.80
2017-09-12T00:17:44.980Z,11.77
2017-09-12T00:20:13.269Z,11.74
2017-09-12T00:22:42.329Z,11.71
2017-09-12T00:25:10.616Z,11.65
2017-09-12T00:27:38.937Z,11.60
2017-09-12T00:30:07.226Z,11.59
2017-09-12T00:32:35.533Z,11.53
2017-09-12T00:35:04.585Z,11.47
2017-09-12T00:37:32.893Z,11.46
2017-09-12T00:40:01.181Z,11.39
2017-09-12T00:42:29.489Z,11.36
2017-09-12T00:44:57.794Z,11.33
2017-09-12T00:47:26.086Z,11.27
2017-09-12T00:49:54.376Z,11.26
2017-09-12T00:52:22.665Z,11.30
2017-09-12T00:54:50.965Z,11.31
2017-09-12T00:57:19.256Z,11.33
2017-09-12T00:59:48.322Z,11.45
2017-09-12T01:02:16.622Z,11.45
2017-09-12T01:04:44.921Z,11.50
2017-09-12T01:07:13.213Z,11.54
2017-09-12T01:09:41.541Z,11.59
2017-09-12T01:12:09.829Z,11.57
2017-09-12T01:14:38.122Z,11.59
2017-09-12T01:17:07.189Z,11.62
2017-09-12T01:19:35.481Z,11.66
2017-09-12T01:22:04.549Z,11.60
2017-09-12T01:24:32.848Z,11.57
2017-09-12T01:27:01.148Z,11.56
2017-09-12T01:29:30.214Z,11.60
2017-09-12T01:31:59.277Z,11.78
2017-09-12T01:34:27.561Z,11.96
2017-09-12T01:36:57.201Z,12.15
2017-09-12T01:39:26.265Z,12.31
2017-09-12T01:41:54.582Z,12.44
2017-09-12T01:44:23.638Z,12.55
2017-09-12T01:46:51.930Z,12.62
2017-09-12T01:49:20.229Z,12.67
2017-09-12T01:51:49.309Z,12.67
2017-09-12T01:54:17.610Z,12.67
2017-09-12T01:56:46.669Z,12.60
2017-09-12T01:59:14.972Z,12.62
2017-09-12T02:01:44.025Z,12.61
2017-09-12T02:04:12.334Z,12.65
2017-09-12T02:06:40.627Z,12.68
2017-09-12T02:09:09.697Z,12.69
2017-09-12T02:11:37.987Z,12.68
2017-09-12T02:14:07.065Z,12.64
2017-09-12T02:16:35.362Z,12.57
2017-09-12T02:19:04.430Z,12.61
2017-09-12T02:21:32.725Z,12.64
2017-09-12T02:24:01.017Z,12.51
2017-09-12T02:26:30.093Z,12.42
2017-09-12T02:28:58.390Z,12.36
2017-09-12T02:31:27.460Z,12.29
2017-09-12T02:33:55.757Z,12.34
2017-09-12T02:36:24.865Z,12.33
2017-09-12T02:38:53.982Z,12.31
2017-09-12T02:41:22.273Z,12.28
2017-09-12T02:43:50.570Z,12.27
2017-09-12T02:46:18.873Z,12.25
2017-09-12T02:48:47.957Z,12.22
2017-09-12T02:51:16.266Z,12.25
2017-09-12T02:53:44.573Z,12.26
2017-09-12T02:56:12.870Z,12.26
2017-09-12T02:58:41.181Z,12.24
2017-09-12T03:01:10.242Z,12.24
2017-09-12T03:03:38.557Z,12.25
2017-09-12T03:06:07.631Z,12.19
2017-09-12T03:08:35.930Z,12.18
2017-09-12T03:11:05.001Z,12.20
2017-09-12T03:13:33.298Z,12.23
2017-09-12T03:16:02.374Z,12.25
2017-09-12T03:18:30.666Z,12.27
2017-09-12T03:20:59.761Z,12.28
2017-09-12T03:23:28.834Z,12.22
2017-09-12T03:25:57.131Z,12.21
2017-09-12T03:28:26.202Z,12.22
2017-09-12T03:30:54.518Z,12.15
2017-09-12T03:33:23.597Z,12.09
2017-09-12T03:35:52.664Z,12.05
2017-09-12T03:38:20.971Z,12.05
2017-09-12T03:40:50.034Z,12.10
2017-09-12T03:43:18.395Z,12.10
2017-09-12T03:45:46.691Z,12.19
2017-09-12T03:48:15.002Z,12.24
2017-09-12T03:50:44.057Z,12.16
2017-09-12T03:53:12.411Z,12.16
2017-09-12T03:55:40.708Z,12.11
2017-09-12T03:58:09.010Z,12.04
2017-09-12T04:00:37.312Z,12.04
2017-09-12T04:03:06.443Z,12.13
2017-09-12T04:05:34.755Z,12.26
2017-09-12T04:08:03.052Z,12.34
2017-09-12T04:10:32.126Z,12.39
2017-09-12T04:13:00.422Z,12.49
2017-09-12T04:15:29.496Z,12.56
2017-09-12T04:17:57.789Z,12.63
2017-09-12T04:20:26.118Z,12.70
2017-09-12T04:22:54.425Z,12.78
2017-09-12T04:25:22.727Z,12.83
2017-09-12T04:27:51.813Z,12.87
2017-09-12T04:30:20.117Z,12.94
2017-09-12T04:32:49.200Z,12.94
2017-09-12T04:35:18.280Z,12.94
2017-09-12T04:37:46.622Z,12.91
2017-09-12T04:40:14.918Z,12.87
2017-09-12T04:42:43.269Z,12.88
2017-09-12T04:45:11.557Z,12.99
2017-09-12T04:47:39.898Z,13.01
2017-09-12T04:50:08.193Z,13.01
2017-09-12T04:52:36.482Z,13.05
2017-09-12T04:55:04.782Z,13.12
2017-09-12T04:57:33.073Z,13.21
2017-09-12T05:00:01.377Z,13.31
2017-09-12T05:02:30.442Z,13.32
2017-09-12T05:04:58.753Z,13.41
2017-09-12T05:07:27.813Z,13.36
2017-09-12T05:09:56.155Z,13.34
2017-09-12T05:12:24.524Z,13.41
2017-09-12T05:14:52.814Z,13.48
2017-09-12T05:17:21.125Z,13.58
2017-09-12T05:19:49.414Z,13.66
2017-09-12T05:22:18.488Z,13.66
2017-09-12T05:24:46.821Z,13.63
2017-09-12T05:27:15.174Z,13.70
2017-09-12T05:29:44.246Z,13.73
2017-09-12T05:32:12.541Z,13.80
2017-09-12T05:34:41.606Z,13.84
2017-09-12T05:37:09.918Z,13.91
2017-09-12T05:39:38.307Z,13.96
2017-09-12T05:42:07.373Z,13.90
2017-09-12T05:44:35.706Z,13.97
2017-09-12T05:47:03.998Z,13.84
2017-09-12T05:49:32.304Z,13.97
2017-09-12T05:52:00.614Z,14.04
2017-09-12T05:54:28.901Z,14.02
2017-09-12T05:56:57.210Z,14.15
2017-09-12T05:59:25.514Z,14.10
2017-09-12T06:01:53.842Z,14.13
2017-09-12T06:04:22.141Z,14.20
2017-09-12T06:06:50.446Z,14.14
2017-09-12T06:09:18.754Z,14.31
2017-09-12T06:11:47.053Z,14.29
2017-09-12T06:14:15.363Z,14.42
2017-09-12T06:16:43.673Z,14.63
2017-09-12T06:19:12.761Z,14.67
2017-09-12T06:21:41.834Z,14.99
2017-09-12T06:24:10.170Z,15.13
2017-09-12T06:26:38.476Z,15.22
2017-09-12T06:29:06.790Z,15.39
2017-09-12T06:31:35.873Z,15.51
2017-09-12T06:34:04.495Z,15.66
2017-09-12T06:36:32.809Z,15.56
2017-09-12T06:39:01.793Z,15.69
2017-09-12T06:41:30.107Z,15.76
2017-09-12T06:43:58.427Z,15.61
2017-09-12T06:46:26.737Z,15.86
2017-09-12T06:48:55.039Z,15.76
2017-09-12T06:51:23.338Z,16.04
2017-09-12T06:53:51.630Z,15.88
2017-09-12T06:56:19.945Z,15.82
2017-09-12T06:58:49.022Z,16.14
2017-09-12T07:01:17.330Z,15.96
2017-09-12T07:03:45.655Z,16.06
2017-09-12T07:06:13.969Z,16.35
2017-09-12T07:08:42.277Z,16.48
2017-09-12T07:11:11.350Z,16.65
2017-09-12T07:13:39.654Z,16.93
2017-09-12T07:16:08.717Z,16.99
2017-09-12T07:18:37.025Z,17.41
2017-09-12T07:21:06.085Z,17.34
2017-09-12T07:23:34.418Z,17.20
2017-09-12T07:26:02.727Z,17.37
2017-09-12T07:28:31.021Z,17.48
2017-09-12T07:30:59.326Z,17.82
2017-09-12T07:33:28.393Z,17.56
2017-09-12T07:35:56.902Z,17.71
2017-09-12T07:38:25.978Z,17.25
2017-09-12T07:40:54.294Z,16.97
2017-09-12T07:43:22.615Z,16.51
2017-09-12T07:45:50.938Z,16.51
2017-09-12T07:48:20.011Z,16.62
2017-09-12T07:50:48.318Z,16.53
2017-09-12T07:53:17.389Z,16.58
2017-09-12T07:55:45.677Z,16.74
2017-09-12T07:58:14.750Z,16.85
2017-09-12T08:00:43.070Z,17.02
2017-09-12T08:03:11.390Z,17.25
2017-09-12T08:05:39.699Z,17.20
2017-09-12T08:08:08.778Z,17.54
2017-09-12T08:10:37.065Z,17.53
2017-09-12T08:13:05.374Z,17.54
2017-09-12T08:15:33.666Z,18.19
2017-09-12T08:18:01.966Z,18.25
2017-09-12T08:20:30.268Z,18.63
2017-09-12T08:22:58.553Z,18.69
2017-09-12T08:25:26.856Z,18.48
2017-09-12T08:27:55.167Z,18.61
2017-09-12T08:30:23.491Z,18.57
2017-09-12T08:32:52.562Z,18.99
2017-09-12T08:35:20.878Z,19.43
2017-09-12T08:37:49.179Z,19.84
2017-09-12T08:40:17.496Z,19.15
2017-09-12T08:42:45.790Z,18.47
2017-09-12T08:45:14.878Z,18.40
2017-09-12T08:47:43.173Z,18.55
2017-09-12T08:50:11.474Z,18.83
2017-09-12T08:52:39.985Z,18.20
2017-09-12T08:55:08.365Z,18.06
2017-09-12T08:57:36.745Z,18.95
2017-09-12T09:00:05.041Z,19.82
2017-09-12T09:02:33.345Z,19.23
2017-09-12T09:05:02.405Z,18.46
2017-09-12T09:07:30.775Z,18.94
2017-09-12T09:09:59.146Z,19.01
2017-09-12T09:12:27.450Z,19.30
2017-09-12T09:14:55.741Z,19.77
2017-09-12T09:17:24.834Z,19.76
2017-09-12T09:19:53.893Z,19.76
2017-09-12T09:22:22.185Z,19.01
2017-09-12T09:24:50.494Z,19.44
2017-09-12T09:27:19.578Z,20.01
2017-09-12T09:29:47.886Z,19.19
2017-09-12T09:32:16.193Z,19.08
2017-09-12T09:34:44.498Z,18.59
2017-09-12T09:37:12.795Z,18.17
2017-09-12T09:39:41.903Z,17.63
2017-09-12T09:42:10.204Z,17.39
2017-09-12T09:44:38.497Z,17.41
2017-09-12T09:47:06.806Z,17.48
2017-09-12T09:49:35.103Z,17.57
2017-09-12T09:52:04.166Z,18.08
2017-09-12T09:54:32.470Z,18.22
2017-09-12T09:57:01.537Z,18.80
2017-09-12T09:59:29.835Z,18.84
2017-09-12T10:01:58.907Z,19.08
2017-09-12T10:04:27.193Z,19.49
2017-09-12T10:06:55.831Z,19.92
2017-09-12T10:09:24.122Z,22.45
2017-09-12T10:11:52.426Z,20.71
2017-09-12T10:14:20.722Z,19.69
2017-09-12T10:16:49.802Z,19.12
2017-09-12T10:19:18.098Z,19.36
2017-09-12T10:21:47.198Z,19.52
2017-09-12T10:24:16.262Z,19.64
2017-09-12T10:26:44.577Z,19.88
2017-09-12T10:29:12.878Z,19.03
2017-09-12T10:31:41.166Z,18.79
2017-09-12T10:34:09.470Z,18.42
2017-09-12T10:36:37.898Z,18.30
2017-09-12T10:39:06.203Z,17.81
2017-09-12T10:41:34.515Z,17.88
2017-09-12T10:44:03.603Z,18.02
2017-09-12T10:46:31.924Z,17.63
2017-09-12T10:49:00.265Z,17.70
2017-09-12T10:51:28.553Z,17.74
2017-09-12T10:53:57.614Z,17.81
2017-09-12T10:56:25.929Z,17.85
2017-09-12T10:58:54.990Z,19.59
2017-09-12T11:01:24.061Z,19.43
2017-09-12T11:03:52.357Z,18.64
2017-09-12T11:06:20.654Z,18.40
2017-09-12T11:08:48.958Z,18.19
2017-09-12T11:11:18.034Z,18.24
2017-09-12T11:13:47.110Z,19.05
2017-09-12T11:16:15.435Z,18.59
2017-09-12T11:18:43.738Z,18.37
2017-09-12T11:21:12.029Z,18.26
2017-09-12T11:23:40.333Z,18.04
2017-09-12T11:26:08.629Z,18.35
2017-09-12T11:28:37.694Z,18.44
2017-09-12T11:31:05.993Z,18.85
2017-09-12T11:33:35.057Z,18.65
2017-09-12T11:36:03.354Z,18.68
2017-09-12T11:38:31.690Z,19.00
2017-09-12T11:41:00.782Z,19.23
2017-09-12T11:43:29.086Z,19.66
2017-09-12T11:45:57.397Z,19.87
2017-09-12T11:48:26.458Z,19.47
2017-09-12T11:50:54.769Z,19.30
2017-09-12T11:53:23.826Z,19.75
2017-09-12T11:55:52.143Z,20.54
2017-09-12T11:58:21.200Z,20.70
2017-09-12T12:00:49.525Z,20.38
2017-09-12T12:03:17.828Z,20.03
2017-09-12T12:05:46.118Z,20.12
2017-09-12T12:08:14.430Z,20.30
2017-09-12T12:10:42.726Z,20.53
2017-09-12T12:13:11.804Z,20.62
2017-09-12T12:15:40.107Z,20.16
2017-09-12T12:18:08.405Z,20.09
2017-09-12T12:20:36.697Z,19.57
2017-09-12T12:23:05.006Z,19.63
2017-09-12T12:25:33.306Z,19.37
2017-09-12T12:28:02.450Z,19.64
2017-09-12T12:30:30.750Z,19.22
2017-09-12T12:32:59.080Z,19.14
2017-09-12T12:35:27.382Z,18.97
2017-09-12T12:37:55.677Z,19.06
2017-09-12T12:40:29.795Z,19.37
2017-09-12T12:42:58.090Z,20.51
2017-09-12T12:45:26.436Z,20.55
2017-09-12T12:47:54.749Z,19.86
2017-09-12T12:50:23.817Z,19.93
2017-09-12T12:52:52.119Z,19.91
2017-09-12T12:55:21.210Z,19.72
2017-09-12T12:57:50.274Z,19.82
2017-09-12T13:00:18.578Z,20.74
2017-09-12T13:02:46.885Z,21.62
2017-09-12T13:05:15.190Z,21.71
2017-09-12T13:07:43.511Z,22.03
2017-09-12T13:10:12.587Z,22.08
2017-09-12T13:12:40.897Z,21.51
2017-09-12T13:15:09.963Z,20.45
2017-09-12T13:17:38.284Z,20.46
2017-09-12T13:20:06.577Z,20.24
2017-09-12T13:22:34.894Z,20.09
2017-09-12T13:25:03.193Z,21.03
2017-09-12T13:27:32.253Z,20.85
2017-09-12T13:30:00.562Z,20.37
2017-09-12T13:32:29.622Z,20.19
2017-09-12T13:34:57.941Z,20.12
2017-09-12T13:37:27.001Z,20.29
2017-09-12T13:39:55.297Z,20.32
2017-09-12T13:42:24.379Z,21.54
2017-09-12T13:44:52.710Z,22.37
2017-09-12T13:47:21.009Z,22.00
2017-09-12T13:49:49.305Z,21.87
2017-09-12T13:52:17.607Z,21.05
2017-09-12T13:54:46.678Z,21.69
2017-09-12T13:57:14.993Z,22.26
2017-09-12T13:59:44.058Z,21.84
2017-09-12T14:02:12.374Z,22.07
2017-09-12T14:04:40.670Z,22.13
2017-09-12T14:07:08.974Z,21.89
2017-09-12T14:09:37.271Z,21.74
2017-09-12T14:12:05.610Z,22.11
2017-09-12T14:14:33.905Z,21.44
2017-09-12T14:17:02.214Z,21.23
2017-09-12T14:19:31.278Z,21.49
2017-09-12T14:21:59.587Z,21.84
2017-09-12T14:24:28.649Z,21.32
2017-09-12T14:26:57.817Z,21.73
2017-09-12T14:29:26.117Z,20.86
2017-09-12T14:31:54.429Z,20.43
2017-09-12T14:34:23.528Z,20.32
2017-09-12T14:36:52.585Z,21.10
2017-09-12T14:39:20.881Z,22.00
2017-09-12T14:41:49.194Z,21.83
2017-09-12T14:44:18.254Z,22.23
2017-09-12T14:46:46.585Z,22.14
2017-09-12T14:49:14.877Z,21.97
2017-09-12T14:51:43.182Z,21.77
2017-09-12T14:54:11.493Z,21.69
2017-09-12T14:56:40.594Z,21.12
2017-09-12T14:59:08.890Z,21.52
2017-09-12T15:01:37.185Z,21.79
2017-09-12T15:04:05.485Z,20.84
2017-09-12T15:06:33.785Z,20.35
2017-09-12T15:09:02.855Z,20.59
2017-09-12T15:11:31.167Z,20.38
2017-09-12T15:14:00.244Z,20.55
2017-09-12T15:16:28.545Z,20.55
2017-09-12T15:18:56.845Z,20.99
2017-09-12T15:21:25.159Z,20.96
2017-09-12T15:23:53.478Z,21.23
2017-09-12T15:26:21.775Z,21.41
2017-09-12T15:28:50.069Z,21.06
2017-09-12T15:31:18.376Z,21.17
2017-09-12T15:33:46.681Z,20.85
2017-09-12T15:36:15.751Z,20.64
2017-09-12T15:38:44.061Z,20.61
2017-09-12T15:41:12.375Z,20.54
2017-09-12T15:43:40.666Z,20.28
2017-09-12T15:46:08.975Z,20.03
2017-09-12T15:48:38.038Z,20.13
2017-09-12T15:51:06.361Z,19.67
2017-09-12T15:53:34.672Z,19.44
2017-09-12T15:56:02.965Z,19.31
2017-09-12T15:58:31.279Z,19.16
2017-09-12T16:01:00.342Z,19.09
2017-09-12T16:03:28.649Z,19.44
2017-09-12T16:05:56.946Z,19.70
2017-09-12T16:08:25.254Z,20.10
2017-09-12T16:10:53.561Z,20.52
2017-09-12T16:13:21.884Z,20.46
2017-09-12T16:15:50.177Z,19.86
2017-09-12T16:18:18.474Z,19.39
2017-09-12T16:20:46.778Z,19.03
2017-09-12T16:23:15.074Z,18.75
2017-09-12T16:25:43.415Z,18.56
2017-09-12T16:28:11.755Z,18.39
2017-09-12T16:30:40.074Z,18.26
2017-09-12T16:33:08.374Z,18.12
2017-09-12T16:35:37.494Z,17.99
2017-09-12T16:38:05.849Z,17.92
2017-09-12T16:40:34.903Z,17.87
2017-09-12T16:43:03.217Z,17.85
2017-09-12T16:45:32.291Z,17.79
2017-09-12T16:48:00.626Z,17.71
2017-09-12T16:50:28.926Z,17.77
2017-09-12T16:52:57.250Z,17.73
2017-09-12T16:55:26.309Z,17.75
2017-09-12T16:57:54.633Z,15.37
2017-09-12T17:00:23.711Z,14.19
2017-09-12T17:02:52.782Z,14.15
2017-09-12T17:05:21.096Z,14.07
2017-09-12T17:07:49.422Z,13.91
2017-09-12T17:10:17.730Z,13.83
2017-09-12T17:12:46.035Z,13.87
2017-09-12T17:15:14.370Z,13.85
2017-09-12T17:17:42.706Z,13.91
2017-09-12T17:20:11.005Z,13.93
2017-09-12T17:22:39.317Z,13.95
2017-09-12T17:25:07.621Z,14.06
2017-09-12T17:27:35.934Z,14.06
2017-09-12T17:30:04.233Z,13.97
2017-09-12T17:32:32.541Z,13.97
2017-09-12T17:35:01.610Z,13.88
2017-09-12T17:37:29.922Z,13.94
2017-09-12T17:39:58.218Z,13.79
2017-09-12T17:42:26.529Z,13.75
2017-09-12T17:44:54.831Z,13.61
2017-09-12T17:47:23.186Z,13.52
2017-09-12T17:49:51.501Z,13.33
2017-09-12T17:52:20.562Z,13.24
2017-09-12T17:54:48.871Z,13.14
2017-09-12T17:57:17.940Z,13.03
2017-09-12T17:59:46.257Z,12.92
2017-09-12T18:02:14.561Z,12.86
2017-09-12T18:04:42.894Z,12.83
2017-09-12T18:07:11.953Z,12.83
2017-09-12T18:09:40.258Z,12.80
2017-09-12T18:12:09.362Z,12.80
2017-09-12T18:14:38.434Z,12.79
2017-09-12T18:17:06.764Z,12.71
2017-09-12T18:19:35.077Z,12.79
2017-09-12T18:22:03.386Z,12.74
2017-09-12T18:24:32.469Z,12.68
2017-09-12T18:27:00.778Z,12.56
2017-09-12T18:29:29.097Z,12.55
2017-09-12T18:31:57.401Z,12.57
2017-09-12T18:34:25.699Z,12.54
2017-09-12T18:36:54.946Z,12.60
2017-09-12T18:39:23.268Z,12.60
2017-09-12T18:41:51.589Z,12.67
2017-09-12T18:44:19.957Z,12.73
2017-09-12T18:46:48.273Z,12.71
2017-09-12T18:49:16.587Z,12.74
2017-09-12T18:51:45.651Z,12.87
2017-09-12T18:54:13.975Z,13.01
2017-09-12T18:56:42.283Z,12.97
2017-09-12T18:59:10.628Z,12.95
2017-09-12T19:01:38.922Z,12.89
2017-09-12T19:04:07.299Z,12.81
2017-09-12T19:06:35.601Z,12.78
2017-09-12T19:09:03.904Z,12.69
2017-09-12T19:11:32.216Z,12.62
2017-09-12T19:14:00.513Z,12.60
2017-09-12T19:16:28.822Z,12.52
2017-09-12T19:18:57.122Z,12.42
2017-09-12T19:21:26.213Z,12.41
2017-09-12T19:23:55.280Z,12.37
2017-09-12T19:26:23.573Z,12.35
2017-09-12T19:28:51.887Z,12.28
2017-09-12T19:31:20.194Z,12.20
2017-09-12T19:33:48.501Z,12.16
2017-09-12T19:36:16.803Z,12.12
2017-09-12T19:38:45.885Z,12.06
2017-09-12T19:41:14.193Z,12.02
2017-09-12T19:43:42.503Z,11.95
2017-09-12T19:46:10.803Z,11.96
2017-09-12T19:48:39.138Z,11.97
2017-09-12T19:51:07.485Z,11.98
2017-09-12T19:53:36.608Z,11.98
2017-09-12T19:56:04.969Z,12.01
2017-09-12T19:58:33.278Z,12.09
2017-09-12T20:01:01.637Z,12.06
2017-09-12T20:03:29.951Z,12.01
2017-09-12T20:05:58.273Z,11.98
2017-09-12T20:08:26.589Z,11.94
2017-09-12T20:10:54.919Z,11.98
2017-09-12T20:13:23.979Z,11.96
2017-09-12T20:15:52.291Z,11.98
2017-09-12T20:18:20.606Z,11.98
2017-09-12T20:20:48.905Z,12.03
2017-09-12T20:23:17.972Z,11.93
2017-09-12T20:25:46.279Z,11.87
2017-09-12T20:28:15.375Z,11.87
2017-09-12T20:30:44.433Z,11.89
2017-09-12T20:33:13.510Z,11.95
2017-09-12T20:35:41.856Z,11.88
2017-09-12T20:38:10.202Z,11.79
2017-09-12T20:40:38.511Z,11.77
2017-09-12T20:43:06.819Z,11.77
2017-09-12T20:45:35.129Z,11.78
2017-09-12T20:48:03.425Z,11.72
2017-09-12T20:50:32.505Z,11.66
2017-09-12T20:53:00.812Z,11.65
2017-09-12T20:55:29.126Z,11.61
2017-09-12T20:57:57.431Z,11.59
2017-09-12T21:00:25.771Z,11.59
2017-09-12T21:02:54.064Z,11.61
2017-09-12T21:05:22.362Z,11.63
2017-09-12T21:07:50.675Z,11.58
2017-09-12T21:10:18.983Z,11.51
2017-09-12T21:12:47.293Z,11.48
2017-09-12T21:15:15.602Z,11.55
2017-09-12T21:17:43.922Z,11.50
2017-09-12T21:20:12.221Z,11.46
2017-09-12T21:22:40.607Z,11.39
2017-09-12T21:25:08.919Z,11.37
2017-09-12T21:27:37.217Z,11.35
2017-09-12T21:30:05.534Z,11.33
2017-09-12T21:32:33.842Z,11.31
2017-09-12T21:35:02.921Z,11.29
2017-09-12T21:37:31.997Z,11.28
2017-09-12T21:40:00.309Z,11.31
2017-09-12T21:42:29.378Z,11.33
2017-09-12T21:44:57.686Z,11.32
2017-09-12T21:47:25.987Z,11.33
2017-09-12T21:49:54.325Z,11.31
2017-09-12T21:52:23.393Z,11.44
2017-09-12T21:54:51.685Z,11.43
2017-09-12T21:57:19.998Z,11.44
2017-09-12T21:59:48.298Z,11.43
2017-09-12T22:02:16.616Z,11.42
2017-09-12T22:04:44.918Z,11.36
2017-09-12T22:07:13.243Z,11.35
2017-09-12T22:09:41.550Z,11.35
2017-09-12T22:12:09.873Z,11.34
2017-09-12T22:14:38.175Z,11.32
2017-09-12T22:17:06.481Z,11.31
2017-09-12T22:19:34.799Z,11.33
2017-09-12T22:22:03.102Z,11.34
2017-09-12T22:24:31.422Z,11.36
2017-09-12T22:27:00.490Z,11.39
2017-09-12T22:29:28.805Z,11.38
2017-09-12T22:31:57.861Z,11.37
2017-09-12T22:34:26.166Z,11.31
2017-09-12T22:36:55.232Z,11.28
2017-09-12T22:39:23.543Z,11.28
2017-09-12T22:41:52.623Z,11.26
2017-09-12T22:44:20.941Z,11.26
2017-09-12T22:46:49.237Z,11.24
2017-09-12T22:49:17.538Z,11.17
2017-09-12T22:51:45.841Z,11.18
2017-09-12T22:54:14.906Z,11.23
2017-09-12T22:56:43.232Z,11.16
2017-09-12T22:59:11.534Z,11.13
2017-09-12T23:01:39.842Z,11.14
2017-09-12T23:04:08.150Z,11.14
2017-09-12T23:06:37.234Z,11.10
2017-09-12T23:09:05.551Z,11.07
2017-09-12T23:11:33.858Z,11.11
2017-09-12T23:14:02.179Z,11.17
2017-09-12T23:16:31.245Z,11.23
2017-09-12T23:18:59.558Z,11.17
2017-09-12T23:21:27.868Z,11.19
2017-09-12T23:23:56.182Z,11.17
2017-09-12T23:26:24.476Z,11.20
2017-09-12T23:28:53.572Z,11.22
2017-09-12T23:31:22.633Z,11.23
2017-09-12T23:33:51.702Z,11.23
2017-09-12T23:36:20.010Z,11.23
2017-09-12T23:38:48.314Z,11.20
2017-09-12T23:41:17.390Z,11.20
2017-09-12T23:43:45.697Z,11.23
2017-09-12T23:46:14.768Z,11.21
2017-09-12T23:48:43.063Z,11.20
2017-09-12T23:51:12.144Z,11.21
2017-09-12T23:53:40.465Z,11.16
2017-09-12T23:56:08.769Z,11.09
2017-09-12T23:58:37.088Z,11.01
